sensor_id;sensor_type;location;lat;lon;timestamp;P1;durP1;ratioP1;P2;durP2;ratioP2
23088;SDS011;11713;48.506;8.966;2023-03-01T00:01:05;19.23;;;11.87;;
23088;SDS011;11713;48.506;8.966;2023-03-01T00:03:33;18.40;;;12.27;;
23088;SDS011;11713;48.506;8.966;2023-03-01T00:05:59;15.93;;;11.30;;
23088;SDS011;11713;48.506;8.966;2023-03-01T00:08:26;19.30;;;11.73;;
23088;SDS011;11713;48.506;8.966;2023-03-01T00:13:30;18.93;;;11.83;;
23088;SDS011;11713;48.506;8.966;2023-03-01T00:15:56;21.43;;;11.90;;
23088;SDS011;11713;48.506;8.966;2023-03-01T00:18:22;19.40;;;13.03;;
23088;SDS011;11713;48.506;8.966;2023-03-01T00:20:52;22.30;;;13.17;;
23088;SDS011;11713;48.506;8.966;2023-03-01T00:23:18;19.27;;;12.27;;
23088;SDS011;11713;48.506;8.966;2023-03-01T00:25:45;23.23;;;13.47;;
23088;SDS011;11713;48.506;8.966;2023-03-01T00:28:11;27.17;;;14.93;;
23088;SDS011;11713;48.506;8.966;2023-03-01T00:30:36;29.47;;;17.33;;
23088;SDS011;11713;48.506;8.966;2023-03-01T00:33:02;34.90;;;18.07;;
23088;SDS011;11713;48.506;8.966;2023-03-01T00:35:28;36.50;;;18.67;;
23088;SDS011;11713;48.506;8.966;2023-03-01T00:37:54;38.50;;;20.03;;
23088;SDS011;11713;48.506;8.966;2023-03-01T00:40:26;46.17;;;23.57;;
23088;SDS011;11713;48.506;8.966;2023-03-01T00:42:53;42.23;;;20.97;;
23088;SDS011;11713;48.506;8.966;2023-03-01T00:45:20;45.23;;;21.73;;
23088;SDS011;11713;48.506;8.966;2023-03-01T00:47:47;44.77;;;23.03;;
23088;SDS011;11713;48.506;8.966;2023-03-01T00:50:14;49.13;;;24.30;;
23088;SDS011;11713;48.506;8.966;2023-03-01T00:52:40;38.27;;;20.50;;
23088;SDS011;11713;48.506;8.966;2023-03-01T00:55:06;45.47;;;23.37;;
23088;SDS011;11713;48.506;8.966;2023-03-01T00:57:33;33.10;;;18.70;;
23088;SDS011;11713;48.506;8.966;2023-03-01T00:59:59;31.67;;;17.77;;
23088;SDS011;11713;48.506;8.966;2023-03-01T01:02:25;29.73;;;16.47;;
23088;SDS011;11713;48.506;8.966;2023-03-01T01:04:52;25.43;;;15.30;;
23088;SDS011;11713;48.506;8.966;2023-03-01T01:07:18;26.30;;;15.67;;
23088;SDS011;11713;48.506;8.966;2023-03-01T01:09:45;28.93;;;16.20;;
23088;SDS011;11713;48.506;8.966;2023-03-01T01:12:11;27.23;;;14.77;;
23088;SDS011;11713;48.506;8.966;2023-03-01T01:14:37;19.27;;;12.50;;
23088;SDS011;11713;48.506;8.966;2023-03-01T01:17:04;22.53;;;13.77;;
23088;SDS011;11713;48.506;8.966;2023-03-01T01:19:29;18.20;;;11.77;;
23088;SDS011;11713;48.506;8.966;2023-03-01T01:21:56;18.27;;;11.20;;
23088;SDS011;11713;48.506;8.966;2023-03-01T01:24:22;17.43;;;11.03;;
23088;SDS011;11713;48.506;8.966;2023-03-01T01:26:48;17.33;;;11.27;;
23088;SDS011;11713;48.506;8.966;2023-03-01T01:29:14;18.17;;;11.47;;
23088;SDS011;11713;48.506;8.966;2023-03-01T01:31:40;20.77;;;12.90;;
23088;SDS011;11713;48.506;8.966;2023-03-01T01:34:08;17.97;;;11.07;;
23088;SDS011;11713;48.506;8.966;2023-03-01T01:36:38;20.23;;;12.23;;
23088;SDS011;11713;48.506;8.966;2023-03-01T01:39:04;20.07;;;12.03;;
23088;SDS011;11713;48.506;8.966;2023-03-01T01:41:30;17.90;;;11.30;;
23088;SDS011;11713;48.506;8.966;2023-03-01T01:46:49;18.10;;;11.20;;
23088;SDS011;11713;48.506;8.966;2023-03-01T01:49:22;18.70;;;11.47;;
23088;SDS011;11713;48.506;8.966;2023-03-01T01:51:55;17.37;;;11.77;;
23088;SDS011;11713;48.506;8.966;2023-03-01T01:57:37;18.47;;;11.37;;
23088;SDS011;11713;48.506;8.966;2023-03-01T02:00:18;20.37;;;12.47;;
23088;SDS011;11713;48.506;8.966;2023-03-01T02:02:52;23.03;;;12.87;;
23088;SDS011;11713;48.506;8.966;2023-03-01T02:08:13;20.50;;;13.03;;
23088;SDS011;11713;48.506;8.966;2023-03-01T02:10:41;22.20;;;13.37;;
23088;SDS011;11713;48.506;8.966;2023-03-01T02:13:09;18.73;;;12.33;;
23088;SDS011;11713;48.506;8.966;2023-03-01T02:15:36;18.83;;;12.47;;
23088;SDS011;11713;48.506;8.966;2023-03-01T02:18:04;24.33;;;13.53;;
23088;SDS011;11713;48.506;8.966;2023-03-01T02:23:22;24.00;;;14.33;;
23088;SDS011;11713;48.506;8.966;2023-03-01T02:26:05;24.90;;;13.67;;
23088;SDS011;11713;48.506;8.966;2023-03-01T02:28:52;20.93;;;12.73;;
23088;SDS011;11713;48.506;8.966;2023-03-01T02:31:19;21.70;;;13.63;;
23088;SDS011;11713;48.506;8.966;2023-03-01T02:34:06;20.40;;;12.70;;
23088;SDS011;11713;48.506;8.966;2023-03-01T02:37:04;20.67;;;11.90;;
23088;SDS011;11713;48.506;8.966;2023-03-01T02:39:39;21.43;;;12.60;;
23088;SDS011;11713;48.506;8.966;2023-03-01T02:42:09;22.07;;;13.43;;
23088;SDS011;11713;48.506;8.966;2023-03-01T02:44:38;20.07;;;13.10;;
23088;SDS011;11713;48.506;8.966;2023-03-01T02:47:04;19.07;;;13.07;;
23088;SDS011;11713;48.506;8.966;2023-03-01T02:49:32;19.13;;;13.07;;
23088;SDS011;11713;48.506;8.966;2023-03-01T02:57:33;19.87;;;13.20;;
23088;SDS011;11713;48.506;8.966;2023-03-01T03:00:08;22.33;;;13.37;;
23088;SDS011;11713;48.506;8.966;2023-03-01T03:02:44;22.53;;;13.37;;
23088;SDS011;11713;48.506;8.966;2023-03-01T03:05:18;20.63;;;13.07;;
23088;SDS011;11713;48.506;8.966;2023-03-01T03:07:46;20.93;;;13.27;;
23088;SDS011;11713;48.506;8.966;2023-03-01T03:10:14;24.33;;;13.40;;
23088;SDS011;11713;48.506;8.966;2023-03-01T03:12:50;22.30;;;12.70;;
23088;SDS011;11713;48.506;8.966;2023-03-01T03:15:17;20.10;;;12.20;;
23088;SDS011;11713;48.506;8.966;2023-03-01T03:17:43;18.83;;;12.47;;
23088;SDS011;11713;48.506;8.966;2023-03-01T03:20:10;20.90;;;12.97;;
23088;SDS011;11713;48.506;8.966;2023-03-01T03:22:40;23.00;;;13.80;;
23088;SDS011;11713;48.506;8.966;2023-03-01T03:25:06;20.37;;;13.77;;
23088;SDS011;11713;48.506;8.966;2023-03-01T03:27:36;21.27;;;13.00;;
23088;SDS011;11713;48.506;8.966;2023-03-01T03:30:04;22.43;;;13.47;;
23088;SDS011;11713;48.506;8.966;2023-03-01T03:32:37;23.20;;;14.03;;
23088;SDS011;11713;48.506;8.966;2023-03-01T03:35:04;20.83;;;14.20;;
23088;SDS011;11713;48.506;8.966;2023-03-01T03:37:38;27.27;;;14.90;;
23088;SDS011;11713;48.506;8.966;2023-03-01T03:40:23;22.47;;;13.30;;
23088;SDS011;11713;48.506;8.966;2023-03-01T03:42:50;23.30;;;14.27;;
23088;SDS011;11713;48.506;8.966;2023-03-01T03:45:16;18.90;;;13.23;;
23088;SDS011;11713;48.506;8.966;2023-03-01T03:47:43;21.97;;;13.53;;
23088;SDS011;11713;48.506;8.966;2023-03-01T03:50:10;23.67;;;14.33;;
23088;SDS011;11713;48.506;8.966;2023-03-01T03:52:37;21.10;;;13.70;;
23088;SDS011;11713;48.506;8.966;2023-03-01T03:55:03;22.77;;;14.87;;
23088;SDS011;11713;48.506;8.966;2023-03-01T03:57:34;20.97;;;13.50;;
23088;SDS011;11713;48.506;8.966;2023-03-01T04:00:00;24.57;;;15.00;;
23088;SDS011;11713;48.506;8.966;2023-03-01T04:02:37;24.27;;;15.40;;
23088;SDS011;11713;48.506;8.966;2023-03-01T04:05:04;25.67;;;16.77;;
23088;SDS011;11713;48.506;8.966;2023-03-01T04:07:30;22.20;;;14.23;;
23088;SDS011;11713;48.506;8.966;2023-03-01T04:09:56;24.13;;;14.23;;
23088;SDS011;11713;48.506;8.966;2023-03-01T04:12:22;22.57;;;13.23;;
23088;SDS011;11713;48.506;8.966;2023-03-01T04:14:48;22.63;;;13.63;;
23088;SDS011;11713;48.506;8.966;2023-03-01T04:17:14;21.43;;;13.33;;
23088;SDS011;11713;48.506;8.966;2023-03-01T04:19:39;22.87;;;13.30;;
23088;SDS011;11713;48.506;8.966;2023-03-01T04:22:05;22.13;;;12.93;;
23088;SDS011;11713;48.506;8.966;2023-03-01T04:24:37;20.93;;;13.13;;
23088;SDS011;11713;48.506;8.966;2023-03-01T04:27:03;21.53;;;12.73;;
23088;SDS011;11713;48.506;8.966;2023-03-01T04:29:29;20.77;;;13.60;;
23088;SDS011;11713;48.506;8.966;2023-03-01T04:31:54;21.03;;;13.33;;
23088;SDS011;11713;48.506;8.966;2023-03-01T04:34:20;22.30;;;14.33;;
23088;SDS011;11713;48.506;8.966;2023-03-01T04:36:46;25.00;;;14.27;;
23088;SDS011;11713;48.506;8.966;2023-03-01T04:39:12;23.70;;;13.93;;
23088;SDS011;11713;48.506;8.966;2023-03-01T04:41:45;22.07;;;13.40;;
23088;SDS011;11713;48.506;8.966;2023-03-01T04:44:53;22.67;;;13.23;;
23088;SDS011;11713;48.506;8.966;2023-03-01T04:47:37;23.57;;;13.73;;
23088;SDS011;11713;48.506;8.966;2023-03-01T04:50:08;21.87;;;13.07;;
23088;SDS011;11713;48.506;8.966;2023-03-01T04:52:37;22.17;;;13.90;;
23088;SDS011;11713;48.506;8.966;2023-03-01T04:55:10;21.40;;;13.70;;
23088;SDS011;11713;48.506;8.966;2023-03-01T04:57:42;21.43;;;13.43;;
23088;SDS011;11713;48.506;8.966;2023-03-01T05:00:10;24.70;;;14.20;;
23088;SDS011;11713;48.506;8.966;2023-03-01T05:05:24;21.43;;;13.33;;
23088;SDS011;11713;48.506;8.966;2023-03-01T05:07:56;22.77;;;14.60;;
23088;SDS011;11713;48.506;8.966;2023-03-01T05:10:24;22.57;;;14.93;;
23088;SDS011;11713;48.506;8.966;2023-03-01T05:12:51;22.90;;;15.07;;
23088;SDS011;11713;48.506;8.966;2023-03-01T05:15:18;24.17;;;14.23;;
23088;SDS011;11713;48.506;8.966;2023-03-01T05:17:47;24.27;;;14.03;;
23088;SDS011;11713;48.506;8.966;2023-03-01T05:20:14;22.90;;;14.60;;
23088;SDS011;11713;48.506;8.966;2023-03-01T05:22:40;25.47;;;14.70;;
23088;SDS011;11713;48.506;8.966;2023-03-01T05:25:06;23.20;;;14.43;;
23088;SDS011;11713;48.506;8.966;2023-03-01T05:27:32;24.60;;;13.87;;
23088;SDS011;11713;48.506;8.966;2023-03-01T05:29:59;21.13;;;14.50;;
23088;SDS011;11713;48.506;8.966;2023-03-01T05:32:41;23.10;;;14.77;;
23088;SDS011;11713;48.506;8.966;2023-03-01T05:35:13;25.40;;;14.33;;
23088;SDS011;11713;48.506;8.966;2023-03-01T05:37:41;24.37;;;15.10;;
23088;SDS011;11713;48.506;8.966;2023-03-01T05:40:09;21.47;;;13.97;;
23088;SDS011;11713;48.506;8.966;2023-03-01T05:42:51;21.90;;;14.33;;
23088;SDS011;11713;48.506;8.966;2023-03-01T05:45:20;22.23;;;14.67;;
23088;SDS011;11713;48.506;8.966;2023-03-01T05:47:47;24.17;;;14.80;;
23088;SDS011;11713;48.506;8.966;2023-03-01T05:50:15;27.50;;;15.67;;
23088;SDS011;11713;48.506;8.966;2023-03-01T05:52:47;24.83;;;14.97;;
23088;SDS011;11713;48.506;8.966;2023-03-01T05:55:16;22.60;;;14.20;;
23088;SDS011;11713;48.506;8.966;2023-03-01T05:57:45;20.83;;;14.90;;
23088;SDS011;11713;48.506;8.966;2023-03-01T06:00:12;24.30;;;14.90;;
23088;SDS011;11713;48.506;8.966;2023-03-01T06:02:40;22.10;;;14.33;;
23088;SDS011;11713;48.506;8.966;2023-03-01T06:05:08;23.37;;;14.63;;
23088;SDS011;11713;48.506;8.966;2023-03-01T06:07:35;21.97;;;13.90;;
23088;SDS011;11713;48.506;8.966;2023-03-01T06:10:02;23.83;;;14.30;;
23088;SDS011;11713;48.506;8.966;2023-03-01T06:12:30;21.53;;;14.13;;
23088;SDS011;11713;48.506;8.966;2023-03-01T06:14:58;22.97;;;14.87;;
23088;SDS011;11713;48.506;8.966;2023-03-01T06:17:24;25.67;;;14.93;;
23088;SDS011;11713;48.506;8.966;2023-03-01T06:19:50;26.27;;;16.53;;
23088;SDS011;11713;48.506;8.966;2023-03-01T06:22:16;24.60;;;15.17;;
23088;SDS011;11713;48.506;8.966;2023-03-01T06:24:42;24.37;;;15.50;;
23088;SDS011;11713;48.506;8.966;2023-03-01T06:27:08;24.27;;;15.27;;
23088;SDS011;11713;48.506;8.966;2023-03-01T06:29:34;26.27;;;15.27;;
23088;SDS011;11713;48.506;8.966;2023-03-01T06:32:00;27.67;;;15.90;;
23088;SDS011;11713;48.506;8.966;2023-03-01T06:34:25;25.00;;;15.07;;
23088;SDS011;11713;48.506;8.966;2023-03-01T06:36:51;24.37;;;14.93;;
23088;SDS011;11713;48.506;8.966;2023-03-01T06:39:17;24.17;;;15.40;;
23088;SDS011;11713;48.506;8.966;2023-03-01T06:41:44;24.67;;;14.33;;
23088;SDS011;11713;48.506;8.966;2023-03-01T06:44:10;21.77;;;14.20;;
23088;SDS011;11713;48.506;8.966;2023-03-01T06:46:36;24.73;;;15.73;;
23088;SDS011;11713;48.506;8.966;2023-03-01T06:49:02;24.03;;;15.27;;
23088;SDS011;11713;48.506;8.966;2023-03-01T06:51:32;23.37;;;15.33;;
23088;SDS011;11713;48.506;8.966;2023-03-01T06:53:58;29.30;;;17.27;;
23088;SDS011;11713;48.506;8.966;2023-03-01T06:56:24;28.07;;;17.40;;
23088;SDS011;11713;48.506;8.966;2023-03-01T06:58:50;24.93;;;16.77;;
23088;SDS011;11713;48.506;8.966;2023-03-01T07:01:16;27.80;;;16.67;;
23088;SDS011;11713;48.506;8.966;2023-03-01T07:03:42;24.60;;;15.73;;
23088;SDS011;11713;48.506;8.966;2023-03-01T07:06:09;21.73;;;15.03;;
23088;SDS011;11713;48.506;8.966;2023-03-01T07:08:36;25.40;;;15.30;;
23088;SDS011;11713;48.506;8.966;2023-03-01T07:11:02;24.90;;;15.20;;
23088;SDS011;11713;48.506;8.966;2023-03-01T07:13:29;22.03;;;14.87;;
23088;SDS011;11713;48.506;8.966;2023-03-01T07:15:55;26.97;;;15.83;;
23088;SDS011;11713;48.506;8.966;2023-03-01T07:18:21;23.60;;;15.90;;
23088;SDS011;11713;48.506;8.966;2023-03-01T07:20:47;23.33;;;15.20;;
23088;SDS011;11713;48.506;8.966;2023-03-01T07:23:13;33.37;;;19.40;;
23088;SDS011;11713;48.506;8.966;2023-03-01T07:25:40;29.17;;;17.97;;
23088;SDS011;11713;48.506;8.966;2023-03-01T07:28:06;28.30;;;16.70;;
23088;SDS011;11713;48.506;8.966;2023-03-01T07:30:33;23.70;;;15.83;;
23088;SDS011;11713;48.506;8.966;2023-03-01T07:32:59;25.33;;;15.97;;
23088;SDS011;11713;48.506;8.966;2023-03-01T07:35:25;26.83;;;16.50;;
23088;SDS011;11713;48.506;8.966;2023-03-01T07:37:52;22.93;;;14.57;;
23088;SDS011;11713;48.506;8.966;2023-03-01T07:40:18;24.57;;;15.27;;
23088;SDS011;11713;48.506;8.966;2023-03-01T07:42:45;24.37;;;15.60;;
23088;SDS011;11713;48.506;8.966;2023-03-01T07:45:11;24.23;;;15.47;;
23088;SDS011;11713;48.506;8.966;2023-03-01T07:47:38;26.60;;;15.63;;
23088;SDS011;11713;48.506;8.966;2023-03-01T07:50:04;23.30;;;14.90;;
23088;SDS011;11713;48.506;8.966;2023-03-01T07:52:31;25.10;;;15.33;;
23088;SDS011;11713;48.506;8.966;2023-03-01T07:54:57;22.77;;;15.73;;
23088;SDS011;11713;48.506;8.966;2023-03-01T07:57:23;20.23;;;14.07;;
23088;SDS011;11713;48.506;8.966;2023-03-01T07:59:49;22.17;;;14.87;;
23088;SDS011;11713;48.506;8.966;2023-03-01T08:02:15;23.97;;;15.20;;
23088;SDS011;11713;48.506;8.966;2023-03-01T08:04:41;21.93;;;13.73;;
23088;SDS011;11713;48.506;8.966;2023-03-01T08:07:07;22.53;;;15.40;;
23088;SDS011;11713;48.506;8.966;2023-03-01T08:09:36;23.60;;;15.60;;
23088;SDS011;11713;48.506;8.966;2023-03-01T08:12:03;25.77;;;15.30;;
23088;SDS011;11713;48.506;8.966;2023-03-01T08:14:31;24.70;;;16.00;;
23088;SDS011;11713;48.506;8.966;2023-03-01T08:16:58;23.77;;;16.57;;
23088;SDS011;11713;48.506;8.966;2023-03-01T08:19:24;22.77;;;15.03;;
23088;SDS011;11713;48.506;8.966;2023-03-01T08:21:50;23.03;;;15.13;;
23088;SDS011;11713;48.506;8.966;2023-03-01T08:24:16;24.00;;;14.97;;
23088;SDS011;11713;48.506;8.966;2023-03-01T08:26:42;24.70;;;16.03;;
23088;SDS011;11713;48.506;8.966;2023-03-01T08:29:09;25.73;;;16.80;;
23088;SDS011;11713;48.506;8.966;2023-03-01T08:31:36;27.13;;;17.33;;
23088;SDS011;11713;48.506;8.966;2023-03-01T08:34:07;24.53;;;15.57;;
23088;SDS011;11713;48.506;8.966;2023-03-01T08:36:36;23.77;;;15.43;;
23088;SDS011;11713;48.506;8.966;2023-03-01T08:39:05;23.00;;;15.50;;
23088;SDS011;11713;48.506;8.966;2023-03-01T08:41:32;23.23;;;15.97;;
23088;SDS011;11713;48.506;8.966;2023-03-01T08:43:58;24.57;;;15.73;;
23088;SDS011;11713;48.506;8.966;2023-03-01T08:46:34;24.03;;;16.93;;
23088;SDS011;11713;48.506;8.966;2023-03-01T08:49:20;27.23;;;18.13;;
23088;SDS011;11713;48.506;8.966;2023-03-01T08:51:46;26.23;;;16.20;;
23088;SDS011;11713;48.506;8.966;2023-03-01T08:54:17;20.50;;;15.33;;
23088;SDS011;11713;48.506;8.966;2023-03-01T08:56:45;23.97;;;15.87;;
23088;SDS011;11713;48.506;8.966;2023-03-01T08:59:11;24.60;;;16.33;;
23088;SDS011;11713;48.506;8.966;2023-03-01T09:01:38;26.50;;;16.53;;
23088;SDS011;11713;48.506;8.966;2023-03-01T09:04:05;25.30;;;15.47;;
23088;SDS011;11713;48.506;8.966;2023-03-01T09:06:32;22.37;;;15.17;;
23088;SDS011;11713;48.506;8.966;2023-03-01T09:08:59;23.63;;;16.10;;
23088;SDS011;11713;48.506;8.966;2023-03-01T09:11:25;26.03;;;16.30;;
23088;SDS011;11713;48.506;8.966;2023-03-01T09:13:53;25.60;;;16.50;;
23088;SDS011;11713;48.506;8.966;2023-03-01T09:16:20;22.70;;;15.20;;
23088;SDS011;11713;48.506;8.966;2023-03-01T09:18:50;23.00;;;15.67;;
23088;SDS011;11713;48.506;8.966;2023-03-01T09:21:20;21.77;;;15.83;;
23088;SDS011;11713;48.506;8.966;2023-03-01T09:23:48;24.03;;;15.80;;
23088;SDS011;11713;48.506;8.966;2023-03-01T09:26:17;24.00;;;16.17;;
23088;SDS011;11713;48.506;8.966;2023-03-01T09:28:45;21.43;;;15.80;;
23088;SDS011;11713;48.506;8.966;2023-03-01T09:31:12;24.53;;;16.43;;
23088;SDS011;11713;48.506;8.966;2023-03-01T09:33:39;23.00;;;15.90;;
23088;SDS011;11713;48.506;8.966;2023-03-01T09:36:06;23.03;;;15.30;;
23088;SDS011;11713;48.506;8.966;2023-03-01T09:38:36;23.10;;;16.57;;
23088;SDS011;11713;48.506;8.966;2023-03-01T09:41:02;24.57;;;15.33;;
23088;SDS011;11713;48.506;8.966;2023-03-01T09:46:09;23.80;;;15.33;;
23088;SDS011;11713;48.506;8.966;2023-03-01T09:48:43;20.83;;;15.60;;
23088;SDS011;11713;48.506;8.966;2023-03-01T09:51:26;22.60;;;15.57;;
23088;SDS011;11713;48.506;8.966;2023-03-01T09:53:57;23.53;;;16.10;;
23088;SDS011;11713;48.506;8.966;2023-03-01T09:56:33;21.27;;;16.13;;
23088;SDS011;11713;48.506;8.966;2023-03-01T10:07:19;21.23;;;16.13;;
23088;SDS011;11713;48.506;8.966;2023-03-01T10:10:04;23.27;;;16.07;;
23088;SDS011;11713;48.506;8.966;2023-03-01T10:12:37;22.30;;;15.30;;
23088;SDS011;11713;48.506;8.966;2023-03-01T10:15:17;22.63;;;15.50;;
23088;SDS011;11713;48.506;8.966;2023-03-01T10:18:09;23.00;;;16.30;;
23088;SDS011;11713;48.506;8.966;2023-03-01T10:23:24;22.57;;;15.93;;
23088;SDS011;11713;48.506;8.966;2023-03-01T10:26:07;22.73;;;16.53;;
23088;SDS011;11713;48.506;8.966;2023-03-01T10:31:27;21.37;;;16.30;;
23088;SDS011;11713;48.506;8.966;2023-03-01T10:34:19;22.17;;;15.63;;
23088;SDS011;11713;48.506;8.966;2023-03-01T10:36:49;23.03;;;15.90;;
23088;SDS011;11713;48.506;8.966;2023-03-01T10:39:17;21.67;;;16.23;;
23088;SDS011;11713;48.506;8.966;2023-03-01T10:50:00;22.40;;;15.50;;
23088;SDS011;11713;48.506;8.966;2023-03-01T10:52:30;21.40;;;15.63;;
23088;SDS011;11713;48.506;8.966;2023-03-01T10:55:23;23.63;;;17.60;;
23088;SDS011;11713;48.506;8.966;2023-03-01T11:03:28;20.97;;;14.90;;
23088;SDS011;11713;48.506;8.966;2023-03-01T11:08:38;20.17;;;15.57;;
23088;SDS011;11713;48.506;8.966;2023-03-01T11:16:24;22.33;;;15.70;;
23088;SDS011;11713;48.506;8.966;2023-03-01T11:21:38;22.27;;;16.57;;
23088;SDS011;11713;48.506;8.966;2023-03-01T11:24:08;24.70;;;15.07;;
23088;SDS011;11713;48.506;8.966;2023-03-01T11:26:42;22.77;;;14.93;;
23088;SDS011;11713;48.506;8.966;2023-03-01T11:32:21;20.93;;;15.10;;
23088;SDS011;11713;48.506;8.966;2023-03-01T11:48:48;22.57;;;14.83;;
23088;SDS011;11713;48.506;8.966;2023-03-01T11:51:32;21.03;;;15.43;;
23088;SDS011;11713;48.506;8.966;2023-03-01T11:59:55;23.03;;;16.23;;
23088;SDS011;11713;48.506;8.966;2023-03-01T12:02:42;20.07;;;14.60;;
23088;SDS011;11713;48.506;8.966;2023-03-01T12:08:12;19.40;;;14.87;;
23088;SDS011;11713;48.506;8.966;2023-03-01T12:16:34;18.00;;;13.70;;
23088;SDS011;11713;48.506;8.966;2023-03-01T12:19:21;20.37;;;14.33;;
23088;SDS011;11713;48.506;8.966;2023-03-01T12:30:21;16.33;;;13.47;;
23088;SDS011;11713;48.506;8.966;2023-03-01T12:38:42;18.37;;;13.33;;
23088;SDS011;11713;48.506;8.966;2023-03-01T12:44:35;16.33;;;12.47;;
23088;SDS011;11713;48.506;8.966;2023-03-01T12:47:50;16.10;;;12.27;;
23088;SDS011;11713;48.506;8.966;2023-03-01T12:52:44;17.00;;;12.60;;
23088;SDS011;11713;48.506;8.966;2023-03-01T12:55:24;17.97;;;12.83;;
23088;SDS011;11713;48.506;8.966;2023-03-01T12:57:59;16.40;;;12.43;;
23088;SDS011;11713;48.506;8.966;2023-03-01T13:11:18;15.67;;;12.07;;
23088;SDS011;11713;48.506;8.966;2023-03-01T13:13:46;16.00;;;12.20;;
23088;SDS011;11713;48.506;8.966;2023-03-01T13:19:17;16.77;;;12.60;;
23088;SDS011;11713;48.506;8.966;2023-03-01T13:21:48;15.27;;;11.87;;
23088;SDS011;11713;48.506;8.966;2023-03-01T13:29:51;17.03;;;12.83;;
23088;SDS011;11713;48.506;8.966;2023-03-01T13:34:47;16.03;;;12.40;;
23088;SDS011;11713;48.506;8.966;2023-03-01T13:37:19;14.93;;;11.70;;
23088;SDS011;11713;48.506;8.966;2023-03-01T13:39:47;17.87;;;11.93;;
23088;SDS011;11713;48.506;8.966;2023-03-01T13:45:03;18.27;;;13.73;;
23088;SDS011;11713;48.506;8.966;2023-03-01T13:48:09;16.57;;;12.87;;
23088;SDS011;11713;48.506;8.966;2023-03-01T13:53:36;17.43;;;13.00;;
23088;SDS011;11713;48.506;8.966;2023-03-01T13:56:12;16.57;;;12.97;;
23088;SDS011;11713;48.506;8.966;2023-03-01T13:58:49;18.00;;;13.80;;
23088;SDS011;11713;48.506;8.966;2023-03-01T14:07:10;19.40;;;13.93;;
23088;SDS011;11713;48.506;8.966;2023-03-01T14:09:44;18.23;;;13.83;;
23088;SDS011;11713;48.506;8.966;2023-03-01T14:20:24;19.97;;;13.47;;
23088;SDS011;11713;48.506;8.966;2023-03-01T14:22:53;18.63;;;13.33;;
23088;SDS011;11713;48.506;8.966;2023-03-01T14:25:29;18.27;;;13.37;;
23088;SDS011;11713;48.506;8.966;2023-03-01T14:31:00;18.17;;;13.40;;
23088;SDS011;11713;48.506;8.966;2023-03-01T14:33:33;16.90;;;13.17;;
23088;SDS011;11713;48.506;8.966;2023-03-01T14:36:10;17.03;;;13.10;;
23088;SDS011;11713;48.506;8.966;2023-03-01T14:38:44;19.60;;;13.93;;
23088;SDS011;11713;48.506;8.966;2023-03-01T14:41:22;17.40;;;13.73;;
23088;SDS011;11713;48.506;8.966;2023-03-01T14:43:55;20.57;;;13.93;;
23088;SDS011;11713;48.506;8.966;2023-03-01T14:46:31;17.60;;;13.20;;
23088;SDS011;11713;48.506;8.966;2023-03-01T14:49:14;19.07;;;13.83;;
23088;SDS011;11713;48.506;8.966;2023-03-01T14:51:46;17.77;;;13.60;;
23088;SDS011;11713;48.506;8.966;2023-03-01T14:54:25;17.13;;;13.37;;
23088;SDS011;11713;48.506;8.966;2023-03-01T14:56:58;19.03;;;13.60;;
23088;SDS011;11713;48.506;8.966;2023-03-01T14:59:25;18.63;;;13.20;;
23088;SDS011;11713;48.506;8.966;2023-03-01T15:01:53;18.10;;;12.70;;
23088;SDS011;11713;48.506;8.966;2023-03-01T15:04:22;16.50;;;12.20;;
23088;SDS011;11713;48.506;8.966;2023-03-01T15:06:52;16.83;;;12.47;;
23088;SDS011;11713;48.506;8.966;2023-03-01T15:09:20;14.83;;;12.00;;
23088;SDS011;11713;48.506;8.966;2023-03-01T15:11:47;16.13;;;13.23;;
23088;SDS011;11713;48.506;8.966;2023-03-01T15:14:36;16.63;;;12.03;;
23088;SDS011;11713;48.506;8.966;2023-03-01T15:19:51;17.20;;;13.07;;
23088;SDS011;11713;48.506;8.966;2023-03-01T15:22:17;16.53;;;12.30;;
23088;SDS011;11713;48.506;8.966;2023-03-01T15:24:49;16.23;;;11.57;;
23088;SDS011;11713;48.506;8.966;2023-03-01T15:27:17;18.47;;;12.87;;
23088;SDS011;11713;48.506;8.966;2023-03-01T15:29:49;16.83;;;12.90;;
23088;SDS011;11713;48.506;8.966;2023-03-01T15:32:26;14.57;;;12.00;;
23088;SDS011;11713;48.506;8.966;2023-03-01T15:34:53;17.90;;;12.47;;
23088;SDS011;11713;48.506;8.966;2023-03-01T15:40:22;15.77;;;12.30;;
23088;SDS011;11713;48.506;8.966;2023-03-01T15:42:58;16.60;;;12.37;;
23088;SDS011;11713;48.506;8.966;2023-03-01T15:45:26;15.07;;;11.70;;
23088;SDS011;11713;48.506;8.966;2023-03-01T15:50:28;17.83;;;12.57;;
23088;SDS011;11713;48.506;8.966;2023-03-01T15:52:58;16.33;;;12.00;;
23088;SDS011;11713;48.506;8.966;2023-03-01T15:55:32;17.70;;;12.53;;
23088;SDS011;11713;48.506;8.966;2023-03-01T15:58:00;17.73;;;12.43;;
23088;SDS011;11713;48.506;8.966;2023-03-01T16:00:28;17.40;;;11.53;;
23088;SDS011;11713;48.506;8.966;2023-03-01T16:02:55;15.80;;;12.07;;
23088;SDS011;11713;48.506;8.966;2023-03-01T16:07:53;18.00;;;13.23;;
23088;SDS011;11713;48.506;8.966;2023-03-01T16:10:20;17.23;;;12.37;;
23088;SDS011;11713;48.506;8.966;2023-03-01T16:12:46;15.60;;;12.57;;
23088;SDS011;11713;48.506;8.966;2023-03-01T16:15:32;15.33;;;11.57;;
23088;SDS011;11713;48.506;8.966;2023-03-01T16:18:05;16.87;;;12.63;;
23088;SDS011;11713;48.506;8.966;2023-03-01T16:20:34;16.47;;;12.37;;
23088;SDS011;11713;48.506;8.966;2023-03-01T16:23:01;18.20;;;13.03;;
23088;SDS011;11713;48.506;8.966;2023-03-01T16:25:28;19.03;;;12.97;;
23088;SDS011;11713;48.506;8.966;2023-03-01T16:27:58;17.47;;;13.17;;
23088;SDS011;11713;48.506;8.966;2023-03-01T16:30:29;17.10;;;12.77;;
23088;SDS011;11713;48.506;8.966;2023-03-01T16:32:56;16.13;;;11.30;;
23088;SDS011;11713;48.506;8.966;2023-03-01T16:35:23;16.93;;;12.70;;
23088;SDS011;11713;48.506;8.966;2023-03-01T16:37:49;16.90;;;12.50;;
23088;SDS011;11713;48.506;8.966;2023-03-01T16:40:19;19.93;;;14.43;;
23088;SDS011;11713;48.506;8.966;2023-03-01T16:42:47;18.10;;;13.37;;
23088;SDS011;11713;48.506;8.966;2023-03-01T16:45:14;17.83;;;12.50;;
23088;SDS011;11713;48.506;8.966;2023-03-01T16:47:40;16.67;;;11.90;;
23088;SDS011;11713;48.506;8.966;2023-03-01T16:50:06;18.17;;;12.87;;
23088;SDS011;11713;48.506;8.966;2023-03-01T16:52:33;15.47;;;11.40;;
23088;SDS011;11713;48.506;8.966;2023-03-01T16:54:59;17.77;;;12.87;;
23088;SDS011;11713;48.506;8.966;2023-03-01T16:57:25;15.70;;;12.13;;
23088;SDS011;11713;48.506;8.966;2023-03-01T16:59:51;15.03;;;10.70;;
23088;SDS011;11713;48.506;8.966;2023-03-01T17:02:21;17.60;;;11.27;;
23088;SDS011;11713;48.506;8.966;2023-03-01T17:04:54;19.43;;;13.13;;
23088;SDS011;11713;48.506;8.966;2023-03-01T17:07:21;16.83;;;11.77;;
23088;SDS011;11713;48.506;8.966;2023-03-01T17:09:47;17.43;;;12.10;;
23088;SDS011;11713;48.506;8.966;2023-03-01T17:12:14;19.83;;;12.50;;
23088;SDS011;11713;48.506;8.966;2023-03-01T17:14:41;25.47;;;16.20;;
23088;SDS011;11713;48.506;8.966;2023-03-01T17:17:07;18.10;;;13.37;;
23088;SDS011;11713;48.506;8.966;2023-03-01T17:19:34;22.50;;;14.70;;
23088;SDS011;11713;48.506;8.966;2023-03-01T17:22:06;57.80;;;35.73;;
23088;SDS011;11713;48.506;8.966;2023-03-01T17:24:33;44.90;;;27.73;;
23088;SDS011;11713;48.506;8.966;2023-03-01T17:26:59;30.27;;;20.83;;